Time;durP1;ratioP1;P1;durP2;ratioP2;P2;SDS_P1;SDS_P2;PMS_P1;PMS_P2;Temp;Humidity;BMP_temperature;BMP_pressure;BME280_temperature;BME280_humidity;BME280_pressure;Samples;Min_cycle;Max_cycle;Signal;HPM_P1;HPM_P2
2022/03/03 00:00:15;;;;;;;18.13;11.07;;;;;;;6.09;46.43;101958.88;5020972;28;20583;-48
2022/03/03 00:02:43;;;;;;;15.90;10.38;;;;;;;6.03;46.56;101954.28;5035446;28;20474;-43
2022/03/03 00:05:11;;;;;;;15.75;10.63;;;;;;;5.96;46.71;101959.69;5035036;28;20037;-45
2022/03/03 00:07:39;;;;;;;15.73;10.65;;;;;;;5.90;46.89;101949.69;5025183;28;20045;-47
2022/03/03 00:10:08;;;;;;;17.58;10.90;;;;;;;5.91;47.11;101952.16;5016103;28;20076;-43
2022/03/03 00:12:36;;;;;;;18.52;11.18;;;;;;;5.94;46.87;101959.91;5034835;28;20082;-50
2022/03/03 00:15:05;;;;;;;18.77;11.30;;;;;;;5.89;46.83;101954.28;5035339;28;20046;-46
2022/03/03 00:17:33;;;;;;;17.23;11.32;;;;;;;5.80;47.02;101951.97;5029068;28;20138;-50
2022/03/03 00:20:01;;;;;;;16.42;11.00;;;;;;;5.72;47.40;101953.00;5021338;28;20120;-47
2022/03/03 00:22:28;;;;;;;15.43;10.85;;;;;;;5.64;47.64;101950.53;5034936;28;20046;-49
2022/03/03 00:24:56;;;;;;;15.88;10.90;;;;;;;5.60;47.96;101949.25;5034745;28;20048;-45
2022/03/03 00:27:24;;;;;;;14.02;10.20;;;;;;;5.54;48.16;101956.34;5034192;28;20042;-46
2022/03/03 00:29:52;;;;;;;17.80;11.23;;;;;;;5.53;48.41;101944.69;5033466;28;20087;-51
2022/03/03 00:32:20;;;;;;;17.02;11.35;;;;;;;5.54;48.12;101940.94;5012844;28;20141;-46
2022/03/03 00:34:48;;;;;;;19.52;11.07;;;;;;;5.53;48.31;101944.69;5014968;28;20046;-49
2022/03/03 00:37:17;;;;;;;15.18;10.55;;;;;;;5.46;48.26;101940.31;5017552;28;20129;-48
2022/03/03 00:39:44;;;;;;;19.00;11.20;;;;;;;5.47;48.49;101945.50;5015110;28;20038;-51
2022/03/03 00:42:12;;;;;;;14.57;10.27;;;;;;;5.48;48.64;101933.69;5015004;28;20046;-50
2022/03/03 00:44:40;;;;;;;14.07;10.80;;;;;;;5.53;48.23;101923.06;5014652;28;20053;-48
2022/03/03 00:47:07;;;;;;;15.48;10.80;;;;;;;5.50;48.66;101926.16;5024041;28;20476;-52
2022/03/03 00:49:35;;;;;;;16.90;10.77;;;;;;;5.44;48.70;101932.41;5032370;28;20041;-50
2022/03/03 00:52:04;;;;;;;15.00;10.75;;;;;;;5.42;48.63;101928.25;5013311;28;20129;-47
2022/03/03 00:54:31;;;;;;;17.15;11.63;;;;;;;5.41;48.83;101929.28;5015447;28;20048;-50
2022/03/03 00:56:59;;;;;;;15.38;10.70;;;;;;;5.39;48.89;101931.34;5016137;28;20041;-45
2022/03/03 00:59:27;;;;;;;16.42;11.73;;;;;;;5.36;48.90;101927.19;5019208;28;20040;-49
2022/03/03 01:01:55;;;;;;;15.40;11.43;;;;;;;5.38;49.02;101929.69;5033865;28;20120;-49
2022/03/03 01:04:23;;;;;;;16.88;11.88;;;;;;;5.32;49.16;101934.06;5033937;28;20136;-53
2022/03/03 01:06:51;;;;;;;15.05;10.95;;;;;;;5.30;49.38;101931.56;5029063;28;20484;-47
2022/03/03 01:09:18;;;;;;;15.25;10.88;;;;;;;5.30;49.51;101928.84;5015142;28;20045;-53
2022/03/03 01:11:46;;;;;;;15.20;10.82;;;;;;;5.34;49.38;101927.41;4997042;28;20030;-49
2022/03/03 01:14:14;;;;;;;17.48;10.90;;;;;;;5.38;49.09;101927.81;5014662;28;20415;-48
2022/03/03 01:16:41;;;;;;;15.23;11.38;;;;;;;5.36;49.11;101927.19;5015411;28;20050;-48
2022/03/03 01:19:09;;;;;;;16.38;11.45;;;;;;;5.35;49.42;101928.25;5014519;28;20128;-46
2022/03/03 01:21:37;;;;;;;17.42;11.20;;;;;;;5.31;49.45;101932.38;5046046;28;20049;-53
2022/03/03 01:24:05;;;;;;;15.68;11.02;;;;;;;5.24;50.03;101928.84;5013911;28;20137;-49
2022/03/03 01:26:33;;;;;;;17.55;10.82;;;;;;;5.19;49.80;101929.44;5021986;28;20040;-51
2022/03/03 01:29:00;;;;;;;16.65;11.50;;;;;;;5.10;49.77;101918.03;5032697;28;20038;-47
2022/03/03 01:31:28;;;;;;;16.17;10.95;;;;;;;5.04;50.26;101910.72;5028862;28;20072;-50
2022/03/03 01:33:56;;;;;;;16.52;10.93;;;;;;;5.01;50.07;101911.16;5013626;28;20092;-49
2022/03/03 01:36:23;;;;;;;15.65;11.07;;;;;;;5.00;50.90;101905.94;5014756;28;20037;-48
2022/03/03 01:38:51;;;;;;;16.45;11.15;;;;;;;5.04;50.96;101899.09;5014115;28;20061;-48
2022/03/03 01:41:19;;;;;;;15.07;11.23;;;;;;;5.11;50.58;101897.25;5013542;28;20046;-49
2022/03/03 01:43:46;;;;;;;16.65;11.52;;;;;;;5.13;50.47;101889.78;5013774;28;20046;-52
2022/03/03 01:46:15;;;;;;;16.30;10.95;;;;;;;5.07;50.61;101886.00;5021925;28;20140;-49
2022/03/03 01:48:44;;;;;;;15.30;10.85;;;;;;;5.08;50.85;101890.38;5031232;28;20111;-51
2022/03/03 01:51:12;;;;;;;15.48;11.00;;;;;;;5.09;50.63;101894.72;5032510;28;20051;-47
2022/03/03 01:53:40;;;;;;;15.93;11.13;;;;;;;5.10;50.54;101888.31;5032335;28;20049;-51
2022/03/03 01:56:08;;;;;;;14.60;10.75;;;;;;;5.06;50.16;101881.66;5030378;28;20049;-50
2022/03/03 01:58:37;;;;;;;16.00;10.98;;;;;;;4.97;50.78;101888.28;5032526;28;20040;-51
2022/03/03 02:01:05;;;;;;;16.90;11.07;;;;;;;4.96;50.88;101883.91;5033219;28;20037;-50
2022/03/03 02:03:39;;;;;;;20.13;11.57;;;;;;;4.99;50.78;101879.97;5032373;28;20045;-52
2022/03/03 02:06:06;;;;;;;15.40;10.27;;;;;;;5.02;50.63;101885.78;5032294;28;20045;-51
2022/03/03 02:08:34;;;;;;;16.85;11.20;;;;;;;5.01;50.38;101886.84;5032477;28;20045;-52
2022/03/03 02:11:02;;;;;;;14.32;10.57;;;;;;;4.87;51.06;101882.44;5013226;28;20416;-51
2022/03/03 02:13:29;;;;;;;16.05;11.65;;;;;;;4.73;51.72;101875.34;5013699;28;20435;-52
2022/03/03 02:15:57;;;;;;;15.25;10.73;;;;;;;4.68;51.42;101879.47;5014913;28;20108;-51
2022/03/03 02:18:25;;;;;;;17.60;11.32;;;;;;;4.66;51.57;101872.59;5031321;28;20084;-50
2022/03/03 02:20:52;;;;;;;19.17;11.55;;;;;;;4.60;51.54;101879.66;5014185;28;20040;-47
2022/03/03 02:23:20;;;;;;;15.40;11.38;;;;;;;4.52;51.78;101879.00;5013150;28;20415;-51
2022/03/03 02:25:48;;;;;;;15.98;11.52;;;;;;;4.46;51.83;101884.16;5021762;28;20044;-48
2022/03/03 02:28:15;;;;;;;17.00;11.32;;;;;;;4.45;52.23;101870.91;5031015;28;20052;-51
2022/03/03 02:30:43;;;;;;;14.85;11.18;;;;;;;4.52;52.13;101879.00;5013905;28;20113;-49
2022/03/03 02:33:11;;;;;;;18.02;12.18;;;;;;;4.56;52.06;101867.59;4995569;28;20053;-48
2022/03/03 02:35:38;;;;;;;16.60;10.98;;;;;;;4.53;52.57;101868.00;5017128;28;20038;-53
2022/03/03 02:38:06;;;;;;;14.70;10.68;;;;;;;4.50;51.99;101868.41;5015609;28;20041;-48
2022/03/03 02:40:34;;;;;;;17.45;11.93;;;;;;;4.50;51.87;101863.03;5032754;28;20069;-50
2022/03/03 02:43:02;;;;;;;16.02;10.88;;;;;;;4.53;52.18;101862.63;5033013;28;20037;-49
2022/03/03 02:45:29;;;;;;;16.20;11.30;;;;;;;4.59;51.96;101855.56;5024900;28;20560;-49
2022/03/03 02:47:57;;;;;;;15.75;11.05;;;;;;;4.61;51.64;101850.78;5013049;28;20169;-53
2022/03/03 02:50:25;;;;;;;15.65;10.90;;;;;;;4.49;51.68;101845.16;5011940;28;20562;-49
2022/03/03 02:52:53;;;;;;;19.98;11.98;;;;;;;4.38;52.04;101854.66;5013234;28;20124;-48
2022/03/03 02:55:21;;;;;;;15.82;11.35;;;;;;;4.35;52.92;101846.13;5014333;28;20518;-48
2022/03/03 02:57:54;;;;;;;25.08;11.00;;;;;;;4.38;52.84;101853.84;5036755;28;20411;-49
2022/03/03 03:00:24;;;;;;;17.60;11.43;;;;;;;4.38;52.54;101843.88;5036707;28;20100;-46
2022/03/03 03:02:52;;;;;;;16.23;11.05;;;;;;;4.34;52.82;101849.88;5017204;28;20568;-52
2022/03/03 03:05:24;;;;;;;14.88;11.13;;;;;;;4.32;52.78;101850.06;5017063;28;20046;-50
2022/03/03 03:07:52;;;;;;;16.42;10.98;;;;;;;4.39;53.11;101850.09;5015698;28;20088;-50
2022/03/03 03:10:20;;;;;;;15.75;10.73;;;;;;;4.44;52.46;101850.31;5015464;28;20054;-53
2022/03/03 03:12:47;;;;;;;16.77;11.50;;;;;;;4.46;52.48;101856.34;5030712;28;20038;-52
2022/03/03 03:15:15;;;;;;;16.95;12.07;;;;;;;4.43;52.94;101857.59;5035897;28;20141;-46
2022/03/03 03:17:43;;;;;;;17.42;11.85;;;;;;;4.37;53.01;101847.59;5020372;28;20078;-44
2022/03/03 03:20:11;;;;;;;16.42;11.25;;;;;;;4.36;52.75;101840.53;5016155;28;20046;-45
2022/03/03 03:22:40;;;;;;;16.40;11.32;;;;;;;4.43;53.03;101843.28;5023829;28;20047;-47
2022/03/03 03:25:09;;;;;;;16.52;11.55;;;;;;;4.48;52.86;101843.50;5036197;28;20053;-49
2022/03/03 03:27:38;;;;;;;16.00;11.38;;;;;;;4.54;52.84;101839.97;5034473;28;20037;-50
2022/03/03 03:30:07;;;;;;;18.60;11.55;;;;;;;4.58;52.57;101843.94;5034886;28;20044;-51
2022/03/03 03:32:35;;;;;;;16.55;11.55;;;;;;;4.59;52.95;101834.78;5035067;28;20054;-49
2022/03/03 03:35:04;;;;;;;16.70;10.93;;;;;;;4.61;52.68;101843.53;5036059;28;20048;-52
2022/03/03 03:37:32;;;;;;;18.00;11.35;;;;;;;4.62;52.69;101837.09;5031219;28;20448;-50
2022/03/03 03:40:00;;;;;;;16.55;11.80;;;;;;;4.59;52.62;101840.19;5015969;28;20046;-48
2022/03/03 03:42:27;;;;;;;16.60;11.85;;;;;;;4.53;52.77;101832.09;5026167;28;20137;-48
2022/03/03 03:44:55;;;;;;;16.98;12.05;;;;;;;4.48;52.75;101832.69;5035344;28;20056;-44
2022/03/03 03:47:23;;;;;;;17.23;12.43;;;;;;;4.43;52.59;101829.78;5024631;28;20053;-45
2022/03/03 03:49:51;;;;;;;16.00;11.40;;;;;;;4.41;53.35;101826.44;5016010;28;20121;-46
2022/03/03 03:52:18;;;;;;;16.83;11.20;;;;;;;4.42;53.40;101828.09;5015814;28;20069;-48
2022/03/03 03:54:46;;;;;;;19.67;12.13;;;;;;;4.43;53.22;101824.38;5015733;28;20042;-52
2022/03/03 03:57:14;;;;;;;19.05;11.95;;;;;;;4.42;53.25;101823.53;5020541;28;20037;-51
2022/03/03 03:59:41;;;;;;;16.73;11.05;;;;;;;4.41;53.22;101829.16;5033991;28;20512;-52
2022/03/03 04:02:09;;;;;;;16.67;11.43;;;;;;;4.41;53.34;101821.88;5024977;28;20049;-51
2022/03/03 04:04:37;;;;;;;16.90;12.02;;;;;;;4.41;53.42;101824.56;5015748;28;20377;-48
2022/03/03 04:07:04;;;;;;;17.45;11.70;;;;;;;4.41;53.07;101816.47;5040401;28;20469;-52
2022/03/03 04:09:32;;;;;;;19.40;12.50;;;;;;;4.39;53.37;101812.31;5033835;28;20037;-48
2022/03/03 04:12:00;;;;;;;17.90;12.32;;;;;;;4.32;53.33;101822.25;5033607;28;20129;-53
2022/03/03 04:14:27;;;;;;;18.05;11.73;;;;;;;4.27;53.30;101815.59;5035323;28;20507;-53
2022/03/03 04:16:55;;;;;;;18.08;11.95;;;;;;;4.23;53.96;101811.66;5033408;28;20133;-51
2022/03/03 04:19:23;;;;;;;15.70;11.32;;;;;;;4.22;53.85;101817.25;5034834;28;20060;-51
2022/03/03 04:21:51;;;;;;;18.02;11.85;;;;;;;4.19;54.26;101810.38;5035174;28;20092;-48
2022/03/03 04:24:19;;;;;;;17.55;11.98;;;;;;;4.19;54.29;101805.00;5016216;28;20132;-51
2022/03/03 04:26:46;;;;;;;16.55;10.98;;;;;;;4.20;54.47;101803.94;5024442;28;20042;-50
2022/03/03 04:29:14;;;;;;;17.75;11.45;;;;;;;4.21;54.14;101802.06;5034797;28;20080;-51
2022/03/03 04:31:42;;;;;;;20.13;11.38;;;;;;;4.19;53.84;101799.59;5033955;28;20075;-52
2022/03/03 04:34:09;;;;;;;14.75;11.38;;;;;;;4.16;54.46;101797.31;5021026;28;20045;-53
2022/03/03 04:36:37;;;;;;;16.08;11.65;;;;;;;4.16;54.54;101797.31;5018751;28;20389;-52
2022/03/03 04:39:05;;;;;;;16.58;11.68;;;;;;;4.18;54.13;101800.63;5033879;28;20056;-52
2022/03/03 04:41:32;;;;;;;17.33;12.07;;;;;;;4.18;54.11;101799.78;5034745;28;20518;-52
2022/03/03 04:44:00;;;;;;;15.43;11.40;;;;;;;4.19;53.92;101802.28;5033504;28;20055;-53
2022/03/03 04:46:27;;;;;;;18.10;11.23;;;;;;;4.18;54.50;101787.13;5025489;28;20037;-52
2022/03/03 04:48:59;;;;;;;17.00;12.82;;;;;;;4.17;54.46;101781.97;5014571;28;20065;-47
2022/03/03 04:51:27;;;;;;;15.57;11.57;;;;;;;4.15;54.40;101782.16;5014788;28;20049;-53
2022/03/03 04:53:55;;;;;;;17.48;12.00;;;;;;;4.11;54.61;101791.66;5028377;28;20048;-53
2022/03/03 04:56:23;;;;;;;17.33;10.95;;;;;;;4.07;54.69;101782.34;5027914;28;20052;-51
2022/03/03 04:58:50;;;;;;;16.25;11.80;;;;;;;4.05;54.67;101784.41;5013591;28;20046;-50
2022/03/03 05:01:18;;;;;;;17.23;11.50;;;;;;;4.07;54.32;101787.72;5014504;28;20120;-46
2022/03/03 05:03:46;;;;;;;17.35;12.25;;;;;;;4.00;54.62;101793.09;5014304;28;20046;-50
2022/03/03 05:06:14;;;;;;;16.67;11.95;;;;;;;3.96;54.18;101788.28;5022189;28;20125;-51
2022/03/03 05:08:41;;;;;;;18.05;12.63;;;;;;;3.89;54.09;101785.56;5033900;28;20583;-52
2022/03/03 05:11:09;;;;;;;16.17;11.85;;;;;;;3.80;54.75;101795.69;5018206;28;20125;-51
2022/03/03 05:13:37;;;;;;;18.75;12.57;;;;;;;3.77;54.63;101796.06;5013125;28;20050;-51
2022/03/03 05:16:05;;;;;;;16.75;11.18;;;;;;;3.69;54.70;101790.84;5017958;28;20120;-50
2022/03/03 05:18:33;;;;;;;19.38;11.95;;;;;;;3.71;55.15;101798.75;5032962;28;20491;-51
2022/03/03 05:21:01;;;;;;;18.45;11.68;;;;;;;3.72;54.93;101795.00;5033351;28;20116;-51
2022/03/03 05:23:28;;;;;;;19.10;12.77;;;;;;;3.64;54.95;101787.91;5034032;28;20088;-52
2022/03/03 05:25:56;;;;;;;18.13;11.43;;;;;;;3.56;55.23;101788.06;5028506;28;20061;-51
2022/03/03 05:28:24;;;;;;;17.40;12.02;;;;;;;3.62;55.04;101790.78;5014070;28;20052;-52
2022/03/03 05:30:51;;;;;;;19.05;12.98;;;;;;;3.60;55.26;101802.81;5015026;28;20042;-55
2022/03/03 05:33:20;;;;;;;17.95;12.30;;;;;;;3.56;55.51;101796.13;5013703;28;20457;-52
2022/03/03 05:35:48;;;;;;;16.38;12.23;;;;;;;3.60;54.90;101800.94;5014815;28;20074;-50
2022/03/03 05:38:16;;;;;;;17.27;11.93;;;;;;;3.59;55.42;101799.28;4996355;28;20043;-53
2022/03/03 05:40:44;;;;;;;17.70;11.60;;;;;;;3.59;55.24;101801.16;5013648;28;20042;-52
2022/03/03 05:43:12;;;;;;;19.23;12.38;;;;;;;3.61;54.92;101799.94;5013505;28;20128;-53
2022/03/03 05:45:40;;;;;;;22.92;13.30;;;;;;;3.57;55.36;101793.25;5001924;28;20396;-52
2022/03/03 05:48:09;;;;;;;18.42;12.20;;;;;;;3.47;55.41;101789.25;5013389;28;20061;-52
2022/03/03 05:50:37;;;;;;;17.73;12.35;;;;;;;3.44;55.81;101789.63;5013273;28;20057;-51
2022/03/03 05:53:05;;;;;;;21.55;13.38;;;;;;;3.48;55.90;101788.22;5013499;28;20045;-50
2022/03/03 05:55:35;;;;;;;19.30;12.80;;;;;;;3.50;55.62;101792.38;5017358;28;20050;-53
2022/03/03 05:58:03;;;;;;;17.58;11.75;;;;;;;3.48;55.62;101794.44;5012500;28;20429;-49
2022/03/03 06:00:32;;;;;;;16.05;11.68;;;;;;;3.45;55.01;101800.22;5014627;28;20046;-52
2022/03/03 06:03:03;;;;;;;24.75;12.43;;;;;;;3.36;55.37;101796.84;5012471;28;20072;-50
2022/03/03 06:05:31;;;;;;;19.95;13.18;;;;;;;3.32;56.01;101795.59;5022259;28;20099;-49
2022/03/03 06:08:05;;;;;;;21.08;12.98;;;;;;;3.30;56.00;101799.50;5017717;28;20136;-53
2022/03/03 06:10:35;;;;;;;22.38;13.45;;;;;;;3.24;55.63;101795.72;5019815;28;20042;-47
2022/03/03 06:13:26;;;;;;;17.08;12.32;;;;;;;3.14;56.65;101800.59;5033225;28;20566;-49
2022/03/03 06:15:54;;;;;;;17.35;12.13;;;;;;;3.09;56.78;101794.97;5026268;28;20049;-45
2022/03/03 06:18:27;;;;;;;18.58;12.70;;;;;;;3.12;56.61;101789.19;5032830;28;20513;-45
2022/03/03 06:20:55;;;;;;;18.63;12.35;;;;;;;3.08;56.76;101793.28;5031234;28;20446;-45
2022/03/03 06:23:23;;;;;;;19.95;11.73;;;;;;;3.05;56.75;101791.00;5032890;28;20124;-45
2022/03/03 06:25:56;;;;;;;21.98;12.65;;;;;;;3.01;56.74;101800.47;5025220;28;20489;-51
2022/03/03 06:28:24;;;;;;;23.95;12.52;;;;;;;3.01;57.44;101797.78;5031557;28;20511;-49
2022/03/03 06:30:52;;;;;;;19.88;12.75;;;;;;;3.11;56.85;101792.94;5032429;28;20044;-48
2022/03/03 06:33:20;;;;;;;18.95;12.60;;;;;;;3.14;56.40;101798.75;5034802;28;20042;-49
2022/03/03 06:35:47;;;;;;;24.58;13.65;;;;;;;3.14;56.37;101796.06;5024776;28;20557;-51
2022/03/03 06:38:15;;;;;;;19.33;12.05;;;;;;;3.11;56.54;101806.38;5017134;28;20114;-50
2022/03/03 06:40:43;;;;;;;20.45;13.07;;;;;;;3.06;57.34;101806.16;5016687;28;20044;-50
2022/03/03 06:43:10;;;;;;;21.02;12.27;;;;;;;3.07;57.11;101802.41;4323767;28;10000500;-50
2022/03/03 06:45:38;;;;;;;25.40;13.82;;;;;;;3.05;56.74;101809.84;5027348;28;20471;-51
2022/03/03 06:48:06;;;;;;;18.92;12.65;;;;;;;2.92;57.41;101811.41;5032390;28;20049;-49
2022/03/03 06:50:38;;;;;;;20.92;12.35;;;;;;;2.90;57.57;101808.06;5033048;28;20144;-50
2022/03/03 06:53:07;;;;;;;23.05;13.68;;;;;;;2.92;57.67;101806.00;5032419;28;20052;-47
2022/03/03 06:55:37;;;;;;;21.50;12.45;;;;;;;2.96;57.61;101812.69;5026769;28;20042;-51
2022/03/03 06:58:05;;;;;;;21.15;13.43;;;;;;;2.99;57.67;101801.53;5015399;28;20684;-52
2022/03/03 07:00:34;;;;;;;20.05;13.05;;;;;;;3.07;57.66;101805.09;5033060;28;20499;-48
2022/03/03 07:03:03;;;;;;;18.83;12.45;;;;;;;3.12;57.83;101806.19;5032921;28;20072;-48
2022/03/03 07:05:31;;;;;;;25.08;13.73;;;;;;;3.19;57.33;101808.94;5027406;28;20049;-51
2022/03/03 07:07:59;;;;;;;22.48;14.07;;;;;;;3.25;57.13;101807.31;5013371;28;20479;-49
2022/03/03 07:10:26;;;;;;;23.30;12.13;;;;;;;3.29;56.93;101822.06;5014287;28;20042;-46
2022/03/03 07:12:56;;;;;;;20.52;12.98;;;;;;;3.30;57.16;101812.97;5013323;28;20093;-47
2022/03/03 07:15:25;;;;;;;23.00;13.65;;;;;;;3.31;57.26;101820.84;5020140;28;20045;-49
2022/03/03 07:17:58;;;;;;;24.27;14.18;;;;;;;3.26;57.14;101812.50;5031006;28;20444;-53
2022/03/03 07:20:48;;;;;;;22.38;13.85;;;;;;;3.22;57.69;101819.31;5032833;28;20050;-50
2022/03/03 07:23:35;;;;;;;20.02;12.75;;;;;;;3.22;58.25;101816.63;5031060;28;20506;-50
2022/03/03 07:26:05;;;;;;;25.13;13.73;;;;;;;3.29;57.72;101817.50;5011549;28;20496;-53
2022/03/03 07:28:34;;;;;;;22.10;13.73;;;;;;;3.35;57.89;101816.72;5023536;28;20153;-51
2022/03/03 07:31:03;;;;;;;25.27;13.70;;;;;;;3.45;58.31;101821.78;5012147;28;20090;-50
2022/03/03 07:33:47;;;;;;;19.45;12.75;;;;;;;3.47;57.38;101826.97;5012101;28;20104;-53
2022/03/03 07:36:21;;;;;;;20.55;12.82;;;;;;;3.50;57.07;101823.88;5027916;28;20125;-50
2022/03/03 07:38:59;;;;;;;24.10;13.48;;;;;;;3.57;57.48;101830.16;4998860;28;20041;-49
2022/03/03 07:41:28;;;;;;;20.77;12.80;;;;;;;3.57;57.21;101822.91;5015709;28;20038;-54
2022/03/03 07:43:57;;;;;;;20.35;13.05;;;;;;;3.59;57.16;101823.53;5015529;28;20132;-49
2022/03/03 07:46:26;;;;;;;21.08;14.00;;;;;;;3.67;57.00;101829.81;5014398;28;20041;-49
2022/03/03 07:48:55;;;;;;;17.45;12.13;;;;;;;3.75;56.87;101833.19;5015166;28;20046;-51
2022/03/03 07:51:25;;;;;;;21.08;12.75;;;;;;;3.83;56.12;101840.28;5028625;28;20052;-49
2022/03/03 07:53:53;;;;;;;21.90;13.32;;;;;;;3.80;56.25;101836.13;5017063;28;20041;-48
2022/03/03 07:56:31;;;;;;;22.92;13.30;;;;;;;3.81;56.81;101835.09;5016699;28;20052;-49
2022/03/03 07:59:02;;;;;;;21.33;12.88;;;;;;;3.83;56.67;101846.50;5017283;28;20129;-53
2022/03/03 08:01:31;;;;;;;21.20;12.50;;;;;;;3.91;56.56;101839.28;5034718;28;20120;-50
2022/03/03 08:04:01;;;;;;;23.83;13.68;;;;;;;3.98;56.41;101840.97;5033125;28;20033;-53
2022/03/03 08:06:30;;;;;;;20.35;13.10;;;;;;;4.00;55.55;101843.50;5033693;28;20052;-52
2022/03/03 08:08:59;;;;;;;23.00;13.35;;;;;;;4.01;55.88;101839.75;5035731;28;20072;-49
2022/03/03 08:11:28;;;;;;;23.85;13.27;;;;;;;3.98;56.33;101838.28;5033575;28;20056;-49
2022/03/03 08:13:56;;;;;;;22.38;14.27;;;;;;;4.00;55.63;101838.91;5025709;28;20053;-50
2022/03/03 08:16:26;;;;;;;19.02;12.15;;;;;;;4.07;56.17;101838.97;5020759;28;20050;-53
2022/03/03 08:18:58;;;;;;;20.40;13.45;;;;;;;4.13;55.16;101843.53;5013876;28;20058;-49
2022/03/03 08:21:26;;;;;;;21.30;13.43;;;;;;;4.16;54.18;101847.69;5016129;28;20150;-47
2022/03/03 08:23:56;;;;;;;22.65;13.13;;;;;;;4.12;54.40;101849.97;5017757;28;20066;-48
2022/03/03 08:26:25;;;;;;;22.20;13.50;;;;;;;4.10;54.64;101840.44;5027720;28;20067;-53
2022/03/03 08:28:52;;;;;;;19.75;13.88;;;;;;;4.09;54.28;101842.31;5054576;28;20506;-55
2022/03/03 08:31:28;;;;;;;21.88;13.95;;;;;;;4.07;54.88;101840.84;5054564;28;20041;-54
2022/03/03 08:34:12;;;;;;;22.33;13.65;;;;;;;4.09;54.95;101836.03;5054551;28;20127;-51
2022/03/03 08:36:45;;;;;;;20.35;14.00;;;;;;;4.13;54.08;101834.63;5054766;28;20052;-51
2022/03/03 08:39:15;;;;;;;19.95;13.73;;;;;;;4.15;54.04;101840.66;5054673;28;20045;-51
2022/03/03 08:41:44;;;;;;;23.02;14.45;;;;;;;4.17;54.51;101836.72;5054170;28;20494;-53
2022/03/03 08:44:13;;;;;;;20.83;13.82;;;;;;;4.23;54.22;101841.34;5053527;28;20056;-51
2022/03/03 08:46:41;;;;;;;21.55;14.35;;;;;;;4.25;53.94;101841.94;5054275;28;20045;-54
2022/03/03 08:49:11;;;;;;;27.00;15.55;;;;;;;4.32;53.82;101835.75;5054009;28;20059;-52
2022/03/03 08:51:39;;;;;;;22.20;14.50;;;;;;;4.34;53.86;101842.59;5036552;28;20056;-53
2022/03/03 08:54:08;;;;;;;28.58;16.95;;;;;;;4.38;53.51;101841.19;5014138;28;20484;-51
2022/03/03 08:56:35;;;;;;;32.92;16.67;;;;;;;4.43;53.90;101835.19;5014667;28;20069;-53
2022/03/03 08:59:03;;;;;;;25.17;14.43;;;;;;;4.47;53.61;101828.31;5013301;28;20052;-53
2022/03/03 09:01:31;;;;;;;22.77;15.50;;;;;;;4.55;53.75;101832.72;5015327;28;20550;-51
2022/03/03 09:04:03;;;;;;;23.65;14.48;;;;;;;4.60;53.38;101836.47;5014330;28;20042;-51
2022/03/03 09:06:31;;;;;;;22.25;15.73;;;;;;;4.66;53.95;101835.66;5014205;28;20516;-53
2022/03/03 09:08:59;;;;;;;27.92;15.23;;;;;;;4.72;53.38;101838.59;5013166;28;20070;-54
2022/03/03 09:11:27;;;;;;;26.45;15.52;;;;;;;4.75;52.73;101838.19;5014116;28;20046;-53
2022/03/03 09:13:54;;;;;;;21.08;14.50;;;;;;;4.77;52.98;101825.31;5015086;28;20053;-55
2022/03/03 09:16:22;;;;;;;20.65;13.10;;;;;;;4.79;52.42;101834.03;5014138;28;20084;-54
2022/03/03 09:18:50;;;;;;;23.10;13.05;;;;;;;4.80;52.09;101828.41;5014036;28;20045;-55
2022/03/03 09:21:18;;;;;;;27.90;14.25;;;;;;;5.06;57.40;101829.50;5013761;28;20148;-50
2022/03/03 09:23:45;;;;;;;22.63;13.98;;;;;;;5.06;53.39;101821.41;5014829;28;20050;-52
2022/03/03 09:26:13;;;;;;;21.42;12.98;;;;;;;5.05;51.58;101822.41;5012583;28;20129;-50
2022/03/03 09:28:41;;;;;;;19.85;12.50;;;;;;;5.02;51.09;101823.66;5027856;28;20049;-51
2022/03/03 09:31:08;;;;;;;23.25;13.93;;;;;;;5.04;51.17;101816.19;5012498;28;20046;-50
2022/03/03 09:33:36;;;;;;;21.63;13.40;;;;;;;5.10;52.04;101823.47;5013152;28;20404;-51
2022/03/03 09:36:05;;;;;;;23.70;12.77;;;;;;;5.12;51.79;101807.91;5012688;28;20041;-50
2022/03/03 09:38:32;;;;;;;24.27;12.88;;;;;;;5.20;52.23;101811.44;5018910;28;20121;-47
2022/03/03 09:41:00;;;;;;;22.13;12.95;;;;;;;5.24;51.10;101815.38;5013170;28;20069;-50
2022/03/03 09:43:28;;;;;;;16.98;12.15;;;;;;;5.28;51.13;101811.22;5013361;28;20444;-48
2022/03/03 09:45:56;;;;;;;16.42;11.63;;;;;;;5.32;50.97;101812.47;5012245;28;20056;-45
2022/03/03 09:48:24;;;;;;;20.38;12.10;;;;;;;5.37;50.82;101814.53;5017189;28;20518;-50
2022/03/03 09:50:51;;;;;;;19.48;13.45;;;;;;;5.42;50.89;101807.47;5033428;28;20080;-49
2022/03/03 09:53:19;;;;;;;23.58;13.73;;;;;;;5.49;51.04;101813.69;5032052;28;20511;-49
2022/03/03 09:55:49;;;;;;;19.33;14.00;;;;;;;5.51;50.61;101806.22;5015441;28;20046;-50
2022/03/03 09:58:17;;;;;;;21.33;14.32;;;;;;;5.53;51.28;101814.94;5012075;28;20046;-50
2022/03/03 10:00:46;;;;;;;20.02;14.07;;;;;;;5.55;51.04;101810.13;5013550;28;20037;-48
2022/03/03 10:03:16;;;;;;;21.42;14.00;;;;;;;5.58;50.67;101805.34;5011883;28;20052;-48
2022/03/03 10:05:50;;;;;;;20.73;13.93;;;;;;;5.63;49.32;101805.56;5023704;28;20119;-48
2022/03/03 10:08:22;;;;;;;17.35;12.50;;;;;;;5.72;49.29;101809.69;5031778;28;20562;-49
2022/03/03 10:10:52;;;;;;;19.85;11.10;;;;;;;5.88;53.39;101803.84;5016036;28;20077;-49
2022/03/03 10:13:20;;;;;;;17.60;11.63;;;;;;;6.19;49.27;101805.03;5015216;28;20559;-47
2022/03/03 10:16:05;;;;;;;19.75;12.98;;;;;;;6.24;48.96;101794.38;5014571;28;20052;-45
2022/03/03 10:18:33;;;;;;;17.63;11.93;;;;;;;6.23;48.87;101789.16;5013400;28;20404;-45
2022/03/03 10:21:04;;;;;;;26.05;13.90;;;;;;;6.15;48.88;101795.66;5012103;28;20049;-43
2022/03/03 10:23:34;;;;;;;20.08;12.50;;;;;;;6.16;49.25;101795.44;5013285;28;20042;-49
2022/03/03 10:26:05;;;;;;;19.15;12.05;;;;;;;6.18;49.31;101800.63;5013193;28;20065;-50
2022/03/03 10:28:35;;;;;;;20.63;12.05;;;;;;;6.19;49.22;101802.31;5013116;28;20084;-47
2022/03/03 10:31:04;;;;;;;20.17;12.15;;;;;;;6.21;48.03;101797.53;5011989;28;20065;-48
2022/03/03 10:33:39;;;;;;;17.80;11.80;;;;;;;6.24;47.46;101802.50;5012881;28;20534;-49
2022/03/03 10:36:15;;;;;;;21.90;13.20;;;;;;;6.33;47.27;101801.22;5033019;28;20052;-49
2022/03/03 10:38:52;;;;;;;16.60;11.80;;;;;;;6.39;47.17;101794.91;5031575;28;20411;-49
2022/03/03 10:41:33;;;;;;;16.20;10.57;;;;;;;6.46;47.81;101802.19;5032529;28;20048;-48
2022/03/03 10:44:08;;;;;;;19.92;12.40;;;;;;;6.47;47.02;101795.72;5015145;28;20072;-50
2022/03/03 10:46:39;;;;;;;15.30;10.43;;;;;;;6.53;47.14;101795.69;5031086;28;20463;-51
2022/03/03 10:49:22;;;;;;;18.00;11.10;;;;;;;6.60;45.21;101793.75;5032274;28;20045;-48
2022/03/03 10:51:50;;;;;;;18.60;11.15;;;;;;;6.66;46.09;101792.06;5032462;28;20124;-48
2022/03/03 10:54:18;;;;;;;19.83;12.05;;;;;;;6.68;43.94;101789.13;5020667;28;20069;-48
2022/03/03 10:57:06;;;;;;;19.02;11.27;;;;;;;6.72;44.15;101788.47;5012701;28;20065;-49
2022/03/03 10:59:34;;;;;;;16.98;9.43;;;;;;;6.74;44.97;101791.00;5011770;28;20042;-48
2022/03/03 11:02:02;;;;;;;15.95;10.13;;;;;;;6.78;45.67;101790.34;5014527;28;20499;-49
2022/03/03 11:04:30;;;;;;;16.45;11.02;;;;;;;6.77;45.03;101795.97;5013376;28;20049;-51
2022/03/03 11:06:58;;;;;;;17.95;10.52;;;;;;;6.80;45.94;101795.50;5013035;28;20132;-46
2022/03/03 11:09:26;;;;;;;16.48;10.35;;;;;;;6.86;44.96;101791.13;5011530;28;20141;-49
2022/03/03 11:11:54;;;;;;;17.85;10.93;;;;;;;6.90;44.40;101786.91;5012131;28;20077;-49
2022/03/03 11:14:22;;;;;;;17.05;10.93;;;;;;;6.98;43.84;101786.66;5019486;28;20038;-48
2022/03/03 11:17:13;;;;;;;15.20;9.52;;;;;;;7.03;45.61;101786.81;5012489;28;20054;-49
2022/03/03 11:19:41;;;;;;;16.77;10.75;;;;;;;7.06;43.65;101786.38;4999082;28;20133;-47
2022/03/03 11:22:09;;;;;;;18.65;10.90;;;;;;;7.11;43.21;101783.00;5016447;28;20125;-49
2022/03/03 11:24:38;;;;;;;15.80;9.40;;;;;;;7.11;44.23;101778.41;5029721;28;20134;-45